Terminal Aerodrome Forecast
Issued by NWS

Home | Current Version | Previous Version | Text Only | Print | Product List | Glossary On
Versions: 1 2 3 4 5 6 7 8 9 10 11 12 13
084
FTUS45 KVEF 270525
TAFDAG
TAF
KDAG 270525Z 2706/2806 25006KT P6SM SCT250
     FM271700 08008KT P6SM SCT140 BKN250
     FM280200 VRB06KT P6SM BKN140=

USA.gov is the U.S. government's official web portal to all federal, state and local government web resources and services.